sensor_id;sensor_type;location;lat;lon;timestamp;P1;durP1;ratioP1;P2;durP2;ratioP2
3189;SDS011;1606;51.946;10.558;2023-08-31T00:01:55;8.60;;;4.23;;
3189;SDS011;1606;51.946;10.558;2023-08-31T00:04:26;9.03;;;4.23;;
3189;SDS011;1606;51.946;10.558;2023-08-31T00:06:55;10.07;;;4.60;;
3189;SDS011;1606;51.946;10.558;2023-08-31T00:09:23;8.07;;;4.23;;
3189;SDS011;1606;51.946;10.558;2023-08-31T00:11:51;9.13;;;4.07;;
3189;SDS011;1606;51.946;10.558;2023-08-31T00:14:19;11.70;;;4.60;;
3189;SDS011;1606;51.946;10.558;2023-08-31T00:16:48;10.90;;;4.03;;
3189;SDS011;1606;51.946;10.558;2023-08-31T00:19:16;9.97;;;3.63;;
3189;SDS011;1606;51.946;10.558;2023-08-31T00:21:45;12.07;;;4.50;;
3189;SDS011;1606;51.946;10.558;2023-08-31T00:24:28;8.10;;;4.10;;
3189;SDS011;1606;51.946;10.558;2023-08-31T00:26:59;11.50;;;5.20;;
3189;SDS011;1606;51.946;10.558;2023-08-31T00:29:27;11.00;;;4.73;;
3189;SDS011;1606;51.946;10.558;2023-08-31T00:31:56;11.70;;;5.30;;
3189;SDS011;1606;51.946;10.558;2023-08-31T00:34:24;9.60;;;5.10;;
3189;SDS011;1606;51.946;10.558;2023-08-31T00:36:53;12.03;;;4.90;;
3189;SDS011;1606;51.946;10.558;2023-08-31T00:39:21;10.53;;;5.57;;
3189;SDS011;1606;51.946;10.558;2023-08-31T00:41:49;9.77;;;4.87;;
3189;SDS011;1606;51.946;10.558;2023-08-31T00:44:17;9.37;;;5.80;;
3189;SDS011;1606;51.946;10.558;2023-08-31T00:46:45;11.90;;;5.67;;
3189;SDS011;1606;51.946;10.558;2023-08-31T00:49:13;9.90;;;5.03;;
3189;SDS011;1606;51.946;10.558;2023-08-31T00:51:42;9.70;;;5.50;;
3189;SDS011;1606;51.946;10.558;2023-08-31T00:54:16;10.23;;;5.20;;
3189;SDS011;1606;51.946;10.558;2023-08-31T00:56:45;10.97;;;5.37;;
3189;SDS011;1606;51.946;10.558;2023-08-31T00:59:13;13.33;;;5.30;;
3189;SDS011;1606;51.946;10.558;2023-08-31T01:01:43;10.37;;;5.47;;
3189;SDS011;1606;51.946;10.558;2023-08-31T01:04:18;11.97;;;5.23;;
3189;SDS011;1606;51.946;10.558;2023-08-31T01:06:53;12.97;;;6.20;;
3189;SDS011;1606;51.946;10.558;2023-08-31T01:09:34;9.70;;;5.30;;
3189;SDS011;1606;51.946;10.558;2023-08-31T01:12:09;10.37;;;6.03;;
3189;SDS011;1606;51.946;10.558;2023-08-31T01:14:39;13.70;;;5.97;;
3189;SDS011;1606;51.946;10.558;2023-08-31T01:17:10;13.37;;;5.80;;
3189;SDS011;1606;51.946;10.558;2023-08-31T01:19:43;14.20;;;4.80;;
3189;SDS011;1606;51.946;10.558;2023-08-31T01:22:16;11.43;;;6.50;;
3189;SDS011;1606;51.946;10.558;2023-08-31T01:24:53;8.97;;;4.93;;
3189;SDS011;1606;51.946;10.558;2023-08-31T01:27:22;11.10;;;5.30;;
3189;SDS011;1606;51.946;10.558;2023-08-31T01:29:51;15.30;;;6.70;;
3189;SDS011;1606;51.946;10.558;2023-08-31T01:32:21;12.30;;;5.90;;
3189;SDS011;1606;51.946;10.558;2023-08-31T01:34:49;12.40;;;6.30;;
3189;SDS011;1606;51.946;10.558;2023-08-31T01:37:20;15.97;;;6.83;;
3189;SDS011;1606;51.946;10.558;2023-08-31T01:39:55;9.77;;;5.50;;
3189;SDS011;1606;51.946;10.558;2023-08-31T01:42:30;15.50;;;6.97;;
3189;SDS011;1606;51.946;10.558;2023-08-31T01:44:59;13.50;;;7.17;;
3189;SDS011;1606;51.946;10.558;2023-08-31T01:47:29;10.50;;;5.40;;
3189;SDS011;1606;51.946;10.558;2023-08-31T01:49:58;11.20;;;6.13;;
3189;SDS011;1606;51.946;10.558;2023-08-31T01:52:26;9.80;;;5.80;;
3189;SDS011;1606;51.946;10.558;2023-08-31T01:54:55;9.90;;;5.70;;
3189;SDS011;1606;51.946;10.558;2023-08-31T01:57:23;13.43;;;6.37;;
3189;SDS011;1606;51.946;10.558;2023-08-31T01:59:51;12.93;;;6.10;;
3189;SDS011;1606;51.946;10.558;2023-08-31T02:02:19;12.67;;;7.40;;
3189;SDS011;1606;51.946;10.558;2023-08-31T02:04:47;13.10;;;7.33;;
3189;SDS011;1606;51.946;10.558;2023-08-31T02:07:16;11.77;;;7.67;;
3189;SDS011;1606;51.946;10.558;2023-08-31T02:09:45;13.37;;;7.53;;
3189;SDS011;1606;51.946;10.558;2023-08-31T02:12:14;11.57;;;7.00;;
3189;SDS011;1606;51.946;10.558;2023-08-31T02:14:42;12.97;;;7.50;;
3189;SDS011;1606;51.946;10.558;2023-08-31T02:17:10;14.23;;;8.20;;
3189;SDS011;1606;51.946;10.558;2023-08-31T02:19:38;11.80;;;7.50;;
3189;SDS011;1606;51.946;10.558;2023-08-31T02:22:06;13.20;;;7.90;;
3189;SDS011;1606;51.946;10.558;2023-08-31T02:24:34;12.03;;;7.60;;
3189;SDS011;1606;51.946;10.558;2023-08-31T02:27:02;13.07;;;8.43;;
3189;SDS011;1606;51.946;10.558;2023-08-31T02:29:31;14.20;;;8.10;;
3189;SDS011;1606;51.946;10.558;2023-08-31T02:31:59;16.80;;;9.10;;
3189;SDS011;1606;51.946;10.558;2023-08-31T02:34:27;14.73;;;8.40;;
3189;SDS011;1606;51.946;10.558;2023-08-31T02:36:55;13.37;;;7.30;;
3189;SDS011;1606;51.946;10.558;2023-08-31T02:39:23;18.90;;;8.37;;
3189;SDS011;1606;51.946;10.558;2023-08-31T02:41:51;14.80;;;7.60;;
3189;SDS011;1606;51.946;10.558;2023-08-31T02:44:19;15.87;;;8.23;;
3189;SDS011;1606;51.946;10.558;2023-08-31T02:46:49;18.77;;;9.57;;
3189;SDS011;1606;51.946;10.558;2023-08-31T02:49:17;13.27;;;7.97;;
3189;SDS011;1606;51.946;10.558;2023-08-31T02:51:44;14.07;;;7.63;;
3189;SDS011;1606;51.946;10.558;2023-08-31T02:54:13;12.50;;;7.60;;
3189;SDS011;1606;51.946;10.558;2023-08-31T02:56:42;13.07;;;7.53;;
3189;SDS011;1606;51.946;10.558;2023-08-31T02:59:10;14.80;;;7.57;;
3189;SDS011;1606;51.946;10.558;2023-08-31T03:01:38;13.37;;;8.87;;
3189;SDS011;1606;51.946;10.558;2023-08-31T03:04:08;11.67;;;7.83;;
3189;SDS011;1606;51.946;10.558;2023-08-31T03:06:36;12.40;;;8.00;;
3189;SDS011;1606;51.946;10.558;2023-08-31T03:09:04;13.30;;;7.10;;
3189;SDS011;1606;51.946;10.558;2023-08-31T03:11:31;14.37;;;6.70;;
3189;SDS011;1606;51.946;10.558;2023-08-31T03:13:59;18.70;;;6.83;;
3189;SDS011;1606;51.946;10.558;2023-08-31T03:16:27;12.90;;;6.80;;
3189;SDS011;1606;51.946;10.558;2023-08-31T03:18:55;12.37;;;6.90;;
3189;SDS011;1606;51.946;10.558;2023-08-31T03:21:24;13.90;;;6.73;;
3189;SDS011;1606;51.946;10.558;2023-08-31T03:23:52;13.43;;;7.07;;
3189;SDS011;1606;51.946;10.558;2023-08-31T03:26:20;12.43;;;6.80;;
3189;SDS011;1606;51.946;10.558;2023-08-31T03:28:48;15.50;;;6.37;;
3189;SDS011;1606;51.946;10.558;2023-08-31T03:31:16;14.95;;;7.18;;
3189;SDS011;1606;51.946;10.558;2023-08-31T03:33:44;14.33;;;7.50;;
3189;SDS011;1606;51.946;10.558;2023-08-31T03:36:12;13.70;;;6.80;;
3189;SDS011;1606;51.946;10.558;2023-08-31T03:38:41;14.10;;;7.10;;
3189;SDS011;1606;51.946;10.558;2023-08-31T03:41:10;15.70;;;7.00;;
3189;SDS011;1606;51.946;10.558;2023-08-31T03:43:38;14.13;;;7.10;;
3189;SDS011;1606;51.946;10.558;2023-08-31T03:46:06;14.87;;;7.20;;
3189;SDS011;1606;51.946;10.558;2023-08-31T03:48:34;14.23;;;7.00;;
3189;SDS011;1606;51.946;10.558;2023-08-31T03:51:01;15.30;;;7.20;;
3189;SDS011;1606;51.946;10.558;2023-08-31T03:53:30;14.47;;;8.03;;
3189;SDS011;1606;51.946;10.558;2023-08-31T03:55:59;10.70;;;5.23;;
3189;SDS011;1606;51.946;10.558;2023-08-31T03:58:27;11.73;;;6.40;;
3189;SDS011;1606;51.946;10.558;2023-08-31T04:00:55;14.97;;;6.27;;
3189;SDS011;1606;51.946;10.558;2023-08-31T04:03:24;12.60;;;6.07;;
3189;SDS011;1606;51.946;10.558;2023-08-31T04:05:55;11.77;;;6.17;;
3189;SDS011;1606;51.946;10.558;2023-08-31T04:08:23;16.73;;;6.63;;
3189;SDS011;1606;51.946;10.558;2023-08-31T04:10:51;13.27;;;5.53;;
3189;SDS011;1606;51.946;10.558;2023-08-31T04:13:20;19.20;;;5.67;;
3189;SDS011;1606;51.946;10.558;2023-08-31T04:15:48;12.63;;;5.60;;
3189;SDS011;1606;51.946;10.558;2023-08-31T04:18:16;14.10;;;5.97;;
3189;SDS011;1606;51.946;10.558;2023-08-31T04:20:48;17.13;;;6.07;;
3189;SDS011;1606;51.946;10.558;2023-08-31T04:23:17;12.80;;;6.67;;
3189;SDS011;1606;51.946;10.558;2023-08-31T04:25:45;10.40;;;4.93;;
3189;SDS011;1606;51.946;10.558;2023-08-31T04:28:13;11.07;;;6.00;;
3189;SDS011;1606;51.946;10.558;2023-08-31T04:30:43;11.00;;;5.67;;
3189;SDS011;1606;51.946;10.558;2023-08-31T04:33:11;13.83;;;5.83;;
3189;SDS011;1606;51.946;10.558;2023-08-31T04:35:39;12.47;;;4.80;;
3189;SDS011;1606;51.946;10.558;2023-08-31T04:38:07;13.80;;;5.70;;
3189;SDS011;1606;51.946;10.558;2023-08-31T04:40:35;11.43;;;4.83;;
3189;SDS011;1606;51.946;10.558;2023-08-31T04:43:03;14.67;;;5.00;;
3189;SDS011;1606;51.946;10.558;2023-08-31T04:45:31;8.73;;;3.90;;
3189;SDS011;1606;51.946;10.558;2023-08-31T04:48:00;13.83;;;5.20;;
3189;SDS011;1606;51.946;10.558;2023-08-31T04:50:29;14.13;;;4.60;;
3189;SDS011;1606;51.946;10.558;2023-08-31T04:52:57;11.00;;;4.87;;
3189;SDS011;1606;51.946;10.558;2023-08-31T04:55:25;9.10;;;3.87;;
3189;SDS011;1606;51.946;10.558;2023-08-31T04:57:53;10.40;;;4.00;;
3189;SDS011;1606;51.946;10.558;2023-08-31T05:00:21;9.43;;;3.70;;
3189;SDS011;1606;51.946;10.558;2023-08-31T05:02:49;9.57;;;3.90;;
3189;SDS011;1606;51.946;10.558;2023-08-31T05:05:18;14.23;;;4.30;;
3189;SDS011;1606;51.946;10.558;2023-08-31T05:07:46;11.13;;;4.13;;
3189;SDS011;1606;51.946;10.558;2023-08-31T05:10:14;12.40;;;4.57;;
3189;SDS011;1606;51.946;10.558;2023-08-31T05:12:43;11.03;;;4.20;;
3189;SDS011;1606;51.946;10.558;2023-08-31T05:15:11;10.50;;;4.37;;
3189;SDS011;1606;51.946;10.558;2023-08-31T05:17:39;14.97;;;5.17;;
3189;SDS011;1606;51.946;10.558;2023-08-31T05:20:07;11.50;;;4.17;;
3189;SDS011;1606;51.946;10.558;2023-08-31T05:22:38;10.83;;;4.33;;
3189;SDS011;1606;51.946;10.558;2023-08-31T05:25:06;9.57;;;3.97;;
3189;SDS011;1606;51.946;10.558;2023-08-31T05:27:34;9.17;;;4.13;;
3189;SDS011;1606;51.946;10.558;2023-08-31T05:30:02;9.43;;;4.10;;
3189;SDS011;1606;51.946;10.558;2023-08-31T05:32:31;14.23;;;5.60;;
3189;SDS011;1606;51.946;10.558;2023-08-31T05:34:59;16.03;;;6.23;;
3189;SDS011;1606;51.946;10.558;2023-08-31T05:37:30;12.97;;;7.90;;
3189;SDS011;1606;51.946;10.558;2023-08-31T05:40:01;15.60;;;8.33;;
3189;SDS011;1606;51.946;10.558;2023-08-31T05:42:32;13.20;;;7.87;;
3189;SDS011;1606;51.946;10.558;2023-08-31T05:45:00;14.43;;;8.30;;
3189;SDS011;1606;51.946;10.558;2023-08-31T05:47:28;14.57;;;9.30;;
3189;SDS011;1606;51.946;10.558;2023-08-31T05:49:56;14.10;;;8.30;;
3189;SDS011;1606;51.946;10.558;2023-08-31T05:52:24;16.10;;;8.73;;
3189;SDS011;1606;51.946;10.558;2023-08-31T05:54:52;14.63;;;8.67;;
3189;SDS011;1606;51.946;10.558;2023-08-31T05:57:22;18.13;;;8.87;;
3189;SDS011;1606;51.946;10.558;2023-08-31T05:59:50;14.00;;;8.70;;
3189;SDS011;1606;51.946;10.558;2023-08-31T06:02:18;13.70;;;7.60;;
3189;SDS011;1606;51.946;10.558;2023-08-31T06:04:46;12.13;;;6.60;;
3189;SDS011;1606;51.946;10.558;2023-08-31T06:07:14;13.13;;;6.13;;
3189;SDS011;1606;51.946;10.558;2023-08-31T06:09:42;11.40;;;5.87;;
3189;SDS011;1606;51.946;10.558;2023-08-31T06:12:10;10.60;;;5.30;;
3189;SDS011;1606;51.946;10.558;2023-08-31T06:14:39;11.43;;;6.20;;
3189;SDS011;1606;51.946;10.558;2023-08-31T06:17:07;10.53;;;5.70;;
3189;SDS011;1606;51.946;10.558;2023-08-31T06:19:37;7.97;;;4.33;;
3189;SDS011;1606;51.946;10.558;2023-08-31T06:22:05;12.10;;;4.63;;
3189;SDS011;1606;51.946;10.558;2023-08-31T06:24:34;9.20;;;4.67;;
3189;SDS011;1606;51.946;10.558;2023-08-31T06:27:03;12.10;;;4.57;;
3189;SDS011;1606;51.946;10.558;2023-08-31T06:29:31;8.03;;;4.17;;
3189;SDS011;1606;51.946;10.558;2023-08-31T06:32:01;7.90;;;4.43;;
3189;SDS011;1606;51.946;10.558;2023-08-31T06:34:29;7.27;;;3.23;;
3189;SDS011;1606;51.946;10.558;2023-08-31T06:36:57;8.43;;;3.40;;
3189;SDS011;1606;51.946;10.558;2023-08-31T06:39:25;8.83;;;3.40;;
3189;SDS011;1606;51.946;10.558;2023-08-31T06:41:53;7.33;;;2.83;;
3189;SDS011;1606;51.946;10.558;2023-08-31T06:44:21;10.80;;;3.20;;
3189;SDS011;1606;51.946;10.558;2023-08-31T06:46:49;9.67;;;3.70;;
3189;SDS011;1606;51.946;10.558;2023-08-31T06:49:18;8.90;;;3.23;;
3189;SDS011;1606;51.946;10.558;2023-08-31T06:51:46;6.77;;;2.87;;
3189;SDS011;1606;51.946;10.558;2023-08-31T06:54:14;8.20;;;2.70;;
3189;SDS011;1606;51.946;10.558;2023-08-31T06:56:42;7.70;;;2.80;;
3189;SDS011;1606;51.946;10.558;2023-08-31T06:59:10;7.43;;;3.00;;
3189;SDS011;1606;51.946;10.558;2023-08-31T07:01:38;8.50;;;3.23;;
3189;SDS011;1606;51.946;10.558;2023-08-31T07:04:06;7.20;;;2.90;;
3189;SDS011;1606;51.946;10.558;2023-08-31T07:06:36;8.53;;;3.37;;
3189;SDS011;1606;51.946;10.558;2023-08-31T07:09:04;6.83;;;3.07;;
3189;SDS011;1606;51.946;10.558;2023-08-31T07:11:34;7.00;;;3.33;;
3189;SDS011;1606;51.946;10.558;2023-08-31T07:14:02;12.70;;;4.57;;
3189;SDS011;1606;51.946;10.558;2023-08-31T07:16:30;8.40;;;3.67;;
3189;SDS011;1606;51.946;10.558;2023-08-31T07:18:58;9.13;;;3.50;;
3189;SDS011;1606;51.946;10.558;2023-08-31T07:21:26;11.00;;;3.70;;
3189;SDS011;1606;51.946;10.558;2023-08-31T07:23:55;7.27;;;3.23;;
3189;SDS011;1606;51.946;10.558;2023-08-31T07:26:23;7.20;;;3.83;;
3189;SDS011;1606;51.946;10.558;2023-08-31T07:28:51;7.27;;;3.20;;
3189;SDS011;1606;51.946;10.558;2023-08-31T07:31:19;6.90;;;2.83;;
3189;SDS011;1606;51.946;10.558;2023-08-31T07:33:47;9.33;;;3.30;;
3189;SDS011;1606;51.946;10.558;2023-08-31T07:36:15;7.87;;;3.10;;
3189;SDS011;1606;51.946;10.558;2023-08-31T07:38:43;7.07;;;2.87;;
3189;SDS011;1606;51.946;10.558;2023-08-31T07:41:12;7.03;;;2.60;;
3189;SDS011;1606;51.946;10.558;2023-08-31T07:43:40;8.07;;;2.73;;
3189;SDS011;1606;51.946;10.558;2023-08-31T07:46:24;6.77;;;2.60;;
3189;SDS011;1606;51.946;10.558;2023-08-31T07:48:51;7.90;;;2.63;;
3189;SDS011;1606;51.946;10.558;2023-08-31T07:51:19;6.83;;;3.00;;
3189;SDS011;1606;51.946;10.558;2023-08-31T07:53:49;8.00;;;3.03;;
3189;SDS011;1606;51.946;10.558;2023-08-31T07:56:18;7.27;;;3.10;;
3189;SDS011;1606;51.946;10.558;2023-08-31T07:58:46;14.17;;;3.00;;
3189;SDS011;1606;51.946;10.558;2023-08-31T08:01:14;8.30;;;3.20;;
3189;SDS011;1606;51.946;10.558;2023-08-31T08:03:42;7.00;;;2.97;;
3189;SDS011;1606;51.946;10.558;2023-08-31T08:06:10;10.03;;;2.90;;
3189;SDS011;1606;51.946;10.558;2023-08-31T08:08:38;7.97;;;3.00;;
3189;SDS011;1606;51.946;10.558;2023-08-31T08:11:07;6.90;;;2.77;;
3189;SDS011;1606;51.946;10.558;2023-08-31T08:13:36;7.10;;;2.50;;
3189;SDS011;1606;51.946;10.558;2023-08-31T08:16:04;7.70;;;2.70;;
3189;SDS011;1606;51.946;10.558;2023-08-31T08:18:34;7.60;;;2.93;;
3189;SDS011;1606;51.946;10.558;2023-08-31T08:21:02;18.03;;;2.80;;
3189;SDS011;1606;51.946;10.558;2023-08-31T08:23:30;7.60;;;2.37;;
3189;SDS011;1606;51.946;10.558;2023-08-31T08:25:58;7.60;;;2.67;;
3189;SDS011;1606;51.946;10.558;2023-08-31T08:28:26;6.20;;;2.33;;
3189;SDS011;1606;51.946;10.558;2023-08-31T08:30:55;6.90;;;3.00;;
3189;SDS011;1606;51.946;10.558;2023-08-31T08:33:23;6.30;;;2.30;;
3189;SDS011;1606;51.946;10.558;2023-08-31T08:35:51;11.27;;;2.40;;
3189;SDS011;1606;51.946;10.558;2023-08-31T08:38:23;11.30;;;2.70;;
3189;SDS011;1606;51.946;10.558;2023-08-31T08:40:52;8.67;;;2.70;;
3189;SDS011;1606;51.946;10.558;2023-08-31T08:43:21;11.63;;;2.60;;
3189;SDS011;1606;51.946;10.558;2023-08-31T08:45:52;8.00;;;1.97;;
3189;SDS011;1606;51.946;10.558;2023-08-31T08:48:22;13.87;;;3.67;;
3189;SDS011;1606;51.946;10.558;2023-08-31T08:50:50;6.83;;;1.93;;
3189;SDS011;1606;51.946;10.558;2023-08-31T08:53:19;7.40;;;2.03;;
3189;SDS011;1606;51.946;10.558;2023-08-31T08:55:46;6.80;;;2.33;;
3189;SDS011;1606;51.946;10.558;2023-08-31T08:58:14;7.50;;;2.10;;
3189;SDS011;1606;51.946;10.558;2023-08-31T09:00:42;6.47;;;2.13;;
3189;SDS011;1606;51.946;10.558;2023-08-31T09:03:11;6.83;;;1.80;;
3189;SDS011;1606;51.946;10.558;2023-08-31T09:05:40;8.70;;;1.90;;
3189;SDS011;1606;51.946;10.558;2023-08-31T09:08:09;8.00;;;2.20;;
3189;SDS011;1606;51.946;10.558;2023-08-31T09:10:39;6.97;;;1.80;;
3189;SDS011;1606;51.946;10.558;2023-08-31T09:13:08;10.90;;;2.10;;
3189;SDS011;1606;51.946;10.558;2023-08-31T09:15:41;8.20;;;2.67;;
3189;SDS011;1606;51.946;10.558;2023-08-31T09:18:14;6.37;;;1.80;;
3189;SDS011;1606;51.946;10.558;2023-08-31T09:20:44;6.67;;;2.10;;
3189;SDS011;1606;51.946;10.558;2023-08-31T09:23:13;7.60;;;2.10;;
3189;SDS011;1606;51.946;10.558;2023-08-31T09:25:42;7.73;;;2.67;;
3189;SDS011;1606;51.946;10.558;2023-08-31T09:28:11;8.83;;;1.77;;
3189;SDS011;1606;51.946;10.558;2023-08-31T09:30:40;7.00;;;2.07;;
3189;SDS011;1606;51.946;10.558;2023-08-31T09:33:08;5.90;;;1.80;;
3189;SDS011;1606;51.946;10.558;2023-08-31T09:35:40;7.90;;;2.10;;
3189;SDS011;1606;51.946;10.558;2023-08-31T09:38:15;6.50;;;2.30;;
3189;SDS011;1606;51.946;10.558;2023-08-31T09:40:43;9.00;;;2.17;;
3189;SDS011;1606;51.946;10.558;2023-08-31T09:43:12;6.53;;;1.60;;
3189;SDS011;1606;51.946;10.558;2023-08-31T09:45:45;7.67;;;1.70;;
3189;SDS011;1606;51.946;10.558;2023-08-31T09:48:15;6.70;;;1.90;;
3189;SDS011;1606;51.946;10.558;2023-08-31T09:50:44;7.40;;;2.17;;
3189;SDS011;1606;51.946;10.558;2023-08-31T09:53:12;7.03;;;1.80;;
3189;SDS011;1606;51.946;10.558;2023-08-31T09:55:47;6.17;;;1.90;;
3189;SDS011;1606;51.946;10.558;2023-08-31T09:58:17;7.30;;;2.03;;
3189;SDS011;1606;51.946;10.558;2023-08-31T10:00:47;8.30;;;1.80;;
3189;SDS011;1606;51.946;10.558;2023-08-31T10:03:17;6.37;;;2.10;;
3189;SDS011;1606;51.946;10.558;2023-08-31T10:05:46;8.03;;;2.07;;
3189;SDS011;1606;51.946;10.558;2023-08-31T10:08:16;7.00;;;1.90;;
3189;SDS011;1606;51.946;10.558;2023-08-31T10:10:46;9.03;;;2.00;;
3189;SDS011;1606;51.946;10.558;2023-08-31T10:13:14;5.80;;;1.67;;
3189;SDS011;1606;51.946;10.558;2023-08-31T10:15:43;7.60;;;1.90;;
3189;SDS011;1606;51.946;10.558;2023-08-31T10:18:11;8.23;;;2.23;;
3189;SDS011;1606;51.946;10.558;2023-08-31T10:20:41;6.60;;;1.70;;
3189;SDS011;1606;51.946;10.558;2023-08-31T10:23:10;6.50;;;1.70;;
3189;SDS011;1606;51.946;10.558;2023-08-31T10:28:29;6.40;;;1.60;;
3189;SDS011;1606;51.946;10.558;2023-08-31T10:31:07;18.10;;;2.27;;
3189;SDS011;1606;51.946;10.558;2023-08-31T10:33:39;7.43;;;1.70;;
3189;SDS011;1606;51.946;10.558;2023-08-31T10:36:09;6.23;;;1.40;;
3189;SDS011;1606;51.946;10.558;2023-08-31T10:38:39;12.83;;;1.73;;
3189;SDS011;1606;51.946;10.558;2023-08-31T10:41:22;6.97;;;1.67;;
3189;SDS011;1606;51.946;10.558;2023-08-31T10:43:52;6.60;;;1.90;;
3189;SDS011;1606;51.946;10.558;2023-08-31T10:46:27;7.70;;;1.90;;
3189;SDS011;1606;51.946;10.558;2023-08-31T10:48:57;7.73;;;1.87;;
3189;SDS011;1606;51.946;10.558;2023-08-31T10:51:27;6.63;;;1.73;;
3189;SDS011;1606;51.946;10.558;2023-08-31T10:54:06;6.60;;;1.87;;
3189;SDS011;1606;51.946;10.558;2023-08-31T10:56:54;11.77;;;2.30;;
3189;SDS011;1606;51.946;10.558;2023-08-31T10:59:46;9.07;;;2.23;;
3189;SDS011;1606;51.946;10.558;2023-08-31T11:02:26;9.07;;;2.40;;
3189;SDS011;1606;51.946;10.558;2023-08-31T11:05:01;7.70;;;2.87;;
3189;SDS011;1606;51.946;10.558;2023-08-31T11:07:33;6.43;;;2.37;;
3189;SDS011;1606;51.946;10.558;2023-08-31T11:10:07;9.70;;;2.20;;
3189;SDS011;1606;51.946;10.558;2023-08-31T11:12:41;7.40;;;1.90;;
3189;SDS011;1606;51.946;10.558;2023-08-31T11:15:11;6.90;;;2.10;;
3189;SDS011;1606;51.946;10.558;2023-08-31T11:17:40;7.90;;;1.90;;
3189;SDS011;1606;51.946;10.558;2023-08-31T11:20:09;8.73;;;1.70;;
3189;SDS011;1606;51.946;10.558;2023-08-31T11:22:42;7.50;;;2.27;;
3189;SDS011;1606;51.946;10.558;2023-08-31T11:25:12;6.30;;;1.97;;
3189;SDS011;1606;51.946;10.558;2023-08-31T11:27:42;7.77;;;1.83;;
3189;SDS011;1606;51.946;10.558;2023-08-31T11:30:20;6.63;;;2.20;;
3189;SDS011;1606;51.946;10.558;2023-08-31T11:32:49;6.83;;;2.00;;
3189;SDS011;1606;51.946;10.558;2023-08-31T11:35:18;8.83;;;2.20;;
3189;SDS011;1606;51.946;10.558;2023-08-31T11:37:49;7.13;;;2.30;;
3189;SDS011;1606;51.946;10.558;2023-08-31T11:40:17;9.00;;;2.70;;
3189;SDS011;1606;51.946;10.558;2023-08-31T11:42:47;8.13;;;1.53;;
3189;SDS011;1606;51.946;10.558;2023-08-31T11:45:15;7.37;;;2.00;;
3189;SDS011;1606;51.946;10.558;2023-08-31T11:47:43;9.23;;;2.20;;
3189;SDS011;1606;51.946;10.558;2023-08-31T11:50:12;14.10;;;2.23;;
3189;SDS011;1606;51.946;10.558;2023-08-31T11:52:42;10.40;;;2.20;;
3189;SDS011;1606;51.946;10.558;2023-08-31T11:55:10;9.50;;;1.93;;
3189;SDS011;1606;51.946;10.558;2023-08-31T11:57:39;7.23;;;1.77;;
3189;SDS011;1606;51.946;10.558;2023-08-31T12:00:09;5.57;;;1.60;;
3189;SDS011;1606;51.946;10.558;2023-08-31T12:02:38;5.90;;;1.50;;
3189;SDS011;1606;51.946;10.558;2023-08-31T12:05:06;5.73;;;1.60;;
3189;SDS011;1606;51.946;10.558;2023-08-31T12:07:39;6.17;;;1.80;;
3189;SDS011;1606;51.946;10.558;2023-08-31T12:10:08;6.10;;;1.97;;
3189;SDS011;1606;51.946;10.558;2023-08-31T12:12:36;8.23;;;1.70;;
3189;SDS011;1606;51.946;10.558;2023-08-31T12:15:05;6.63;;;2.10;;
3189;SDS011;1606;51.946;10.558;2023-08-31T12:17:38;6.80;;;2.17;;
3189;SDS011;1606;51.946;10.558;2023-08-31T12:20:06;8.67;;;1.97;;
3189;SDS011;1606;51.946;10.558;2023-08-31T12:22:36;7.63;;;2.27;;
3189;SDS011;1606;51.946;10.558;2023-08-31T12:25:06;6.80;;;2.40;;
3189;SDS011;1606;51.946;10.558;2023-08-31T12:27:34;7.27;;;2.40;;
3189;SDS011;1606;51.946;10.558;2023-08-31T12:30:02;6.70;;;2.40;;
3189;SDS011;1606;51.946;10.558;2023-08-31T12:32:30;7.33;;;2.33;;
3189;SDS011;1606;51.946;10.558;2023-08-31T12:34:59;7.77;;;2.47;;
3189;SDS011;1606;51.946;10.558;2023-08-31T12:37:27;7.40;;;2.50;;
3189;SDS011;1606;51.946;10.558;2023-08-31T12:39:55;8.70;;;2.60;;
3189;SDS011;1606;51.946;10.558;2023-08-31T12:42:24;7.50;;;2.70;;
3189;SDS011;1606;51.946;10.558;2023-08-31T12:44:52;8.03;;;2.60;;
3189;SDS011;1606;51.946;10.558;2023-08-31T12:47:20;12.07;;;2.70;;
3189;SDS011;1606;51.946;10.558;2023-08-31T12:49:48;7.10;;;2.23;;
3189;SDS011;1606;51.946;10.558;2023-08-31T12:52:18;7.20;;;2.10;;
3189;SDS011;1606;51.946;10.558;2023-08-31T12:54:46;7.57;;;2.50;;
3189;SDS011;1606;51.946;10.558;2023-08-31T12:57:14;8.37;;;3.10;;
3189;SDS011;1606;51.946;10.558;2023-08-31T12:59:45;6.70;;;2.10;;
3189;SDS011;1606;51.946;10.558;2023-08-31T13:02:14;7.73;;;2.43;;
3189;SDS011;1606;51.946;10.558;2023-08-31T13:04:42;7.07;;;2.30;;
3189;SDS011;1606;51.946;10.558;2023-08-31T13:07:13;8.77;;;2.40;;
3189;SDS011;1606;51.946;10.558;2023-08-31T13:09:42;7.27;;;2.17;;
3189;SDS011;1606;51.946;10.558;2023-08-31T13:12:13;8.90;;;1.90;;
3189;SDS011;1606;51.946;10.558;2023-08-31T13:14:43;6.57;;;1.67;;
3189;SDS011;1606;51.946;10.558;2023-08-31T13:17:11;5.70;;;1.33;;
3189;SDS011;1606;51.946;10.558;2023-08-31T13:19:39;17.67;;;1.63;;
3189;SDS011;1606;51.946;10.558;2023-08-31T13:22:07;7.43;;;1.93;;
3189;SDS011;1606;51.946;10.558;2023-08-31T13:24:42;6.47;;;1.53;;
3189;SDS011;1606;51.946;10.558;2023-08-31T13:27:10;7.13;;;1.70;;
3189;SDS011;1606;51.946;10.558;2023-08-31T13:29:39;6.00;;;1.57;;
3189;SDS011;1606;51.946;10.558;2023-08-31T13:32:07;9.67;;;1.50;;
3189;SDS011;1606;51.946;10.558;2023-08-31T13:34:35;7.27;;;1.90;;
3189;SDS011;1606;51.946;10.558;2023-08-31T13:37:03;6.73;;;1.50;;
3189;SDS011;1606;51.946;10.558;2023-08-31T13:39:34;6.97;;;1.73;;
3189;SDS011;1606;51.946;10.558;2023-08-31T13:42:04;6.63;;;1.90;;
3189;SDS011;1606;51.946;10.558;2023-08-31T13:44:33;8.80;;;2.23;;
3189;SDS011;1606;51.946;10.558;2023-08-31T13:47:02;7.20;;;1.70;;
3189;SDS011;1606;51.946;10.558;2023-08-31T13:49:32;6.10;;;1.57;;
3189;SDS011;1606;51.946;10.558;2023-08-31T13:52:03;6.40;;;1.63;;
3189;SDS011;1606;51.946;10.558;2023-08-31T13:54:33;6.00;;;1.50;;
3189;SDS011;1606;51.946;10.558;2023-08-31T13:57:02;6.63;;;1.30;;
3189;SDS011;1606;51.946;10.558;2023-08-31T13:59:32;6.13;;;1.40;;
3189;SDS011;1606;51.946;10.558;2023-08-31T14:02:00;7.47;;;1.00;;
3189;SDS011;1606;51.946;10.558;2023-08-31T14:04:30;5.23;;;0.90;;
3189;SDS011;1606;51.946;10.558;2023-08-31T14:06:58;6.60;;;1.17;;
3189;SDS011;1606;51.946;10.558;2023-08-31T14:09:27;5.60;;;1.10;;
3189;SDS011;1606;51.946;10.558;2023-08-31T14:11:55;4.97;;;0.90;;
3189;SDS011;1606;51.946;10.558;2023-08-31T14:14:25;5.40;;;1.20;;
3189;SDS011;1606;51.946;10.558;2023-08-31T14:16:53;5.30;;;1.30;;
3189;SDS011;1606;51.946;10.558;2023-08-31T14:19:21;6.80;;;1.17;;
3189;SDS011;1606;51.946;10.558;2023-08-31T14:21:49;7.00;;;1.43;;
3189;SDS011;1606;51.946;10.558;2023-08-31T14:24:19;8.67;;;1.27;;
3189;SDS011;1606;51.946;10.558;2023-08-31T14:26:47;5.90;;;1.30;;
3189;SDS011;1606;51.946;10.558;2023-08-31T14:29:14;8.13;;;1.60;;
3189;SDS011;1606;51.946;10.558;2023-08-31T14:31:44;8.97;;;1.77;;
3189;SDS011;1606;51.946;10.558;2023-08-31T14:34:12;8.27;;;1.90;;
3189;SDS011;1606;51.946;10.558;2023-08-31T14:36:40;6.97;;;2.10;;
3189;SDS011;1606;51.946;10.558;2023-08-31T14:39:08;8.13;;;2.37;;
3189;SDS011;1606;51.946;10.558;2023-08-31T14:41:36;7.57;;;2.00;;
3189;SDS011;1606;51.946;10.558;2023-08-31T14:44:04;6.73;;;1.90;;
3189;SDS011;1606;51.946;10.558;2023-08-31T14:46:32;5.67;;;1.73;;
3189;SDS011;1606;51.946;10.558;2023-08-31T14:49:02;6.90;;;1.60;;
3189;SDS011;1606;51.946;10.558;2023-08-31T14:51:30;5.70;;;1.50;;
3189;SDS011;1606;51.946;10.558;2023-08-31T14:53:59;6.10;;;1.80;;
3189;SDS011;1606;51.946;10.558;2023-08-31T14:56:27;5.90;;;1.47;;
3189;SDS011;1606;51.946;10.558;2023-08-31T14:58:55;7.70;;;1.40;;
3189;SDS011;1606;51.946;10.558;2023-08-31T15:01:23;6.93;;;1.67;;
3189;SDS011;1606;51.946;10.558;2023-08-31T15:03:51;8.53;;;2.67;;
3189;SDS011;1606;51.946;10.558;2023-08-31T15:18:39;5.60;;;1.40;;
3189;SDS011;1606;51.946;10.558;2023-08-31T15:21:07;7.70;;;1.40;;
3189;SDS011;1606;51.946;10.558;2023-08-31T15:23:34;6.03;;;1.53;;